Terminal Aerodrome Forecast
Issued by NWS Charleston, SC

Home | Current Version | Previous Version | Text Only | Print | Product List | Glossary On
Versions: 1 2 3 4 5 6 7 8 9 10 11 12
877
FTUS42 KCHS 172320
TAFSAV
TAF
KSAV 172320Z 1800/1824 30011G16KT P6SM FEW035
      TEMPO 1803/1807 BKN035
     FM180800 32009KT P6SM SKC=

USA.gov is the U.S. government's official web portal to all federal, state and local government web resources and services.